Time;durP1;ratioP1;P1;durP2;ratioP2;P2;SDS_P1;SDS_P2;PMS_P1;PMS_P2;Temp;Humidity;BMP_temperature;BMP_pressure;BME280_temperature;BME280_humidity;BME280_pressure;Samples;Min_cycle;Max_cycle;Signal;HPM_P1;HPM_P2
2021/10/08 00:02:31;;;;;;;20.30;8.60;;;;;;;6.80;78.19;99818.59;235317;1201;22421;-74
2021/10/08 00:07:34;;;;;;;26.50;8.90;;;;;;;6.75;77.98;99824.20;235421;1201;24212;-75
2021/10/08 00:12:37;;;;;;;26.50;8.80;;;;;;;6.70;77.92;99822.79;235589;1200;24528;-74
2021/10/08 00:17:42;;;;;;;23.30;9.80;;;;;;;6.63;77.96;99821.54;235464;1200;22466;-72
2021/10/08 00:22:53;;;;;;;26.60;8.70;;;;;;;6.56;78.18;99822.45;235648;1199;24066;-72
2021/10/08 00:27:57;;;;;;;24.30;8.20;;;;;;;6.55;78.34;99822.05;236016;1197;24123;-74
2021/10/08 00:33:00;;;;;;;20.50;8.40;;;;;;;6.52;78.26;99828.86;236338;1199;24330;-74
2021/10/08 00:38:06;;;;;;;28.70;8.20;;;;;;;6.48;78.00;99825.33;236355;1197;24053;-74
2021/10/08 00:43:09;;;;;;;17.70;7.30;;;;;;;6.43;78.32;99824.22;235925;1199;25141;-72
2021/10/08 00:48:11;;;;;;;28.90;9.30;;;;;;;6.40;78.22;99822.86;236181;1193;24186;-72
2021/10/08 00:53:14;;;;;;;20.30;7.90;;;;;;;6.36;78.36;99823.91;235991;1199;24047;-72
2021/10/08 00:58:34;;;;;;;23.60;8.30;;;;;;;6.31;78.42;99830.10;235379;1201;24062;-73
2021/10/08 01:03:53;;;;;;;18.90;7.80;;;;;;;6.22;77.99;99830.60;235430;1193;22442;-73
2021/10/08 01:08:56;;;;;;;20.80;7.80;;;;;;;6.14;78.06;99831.48;235828;1200;24055;-72
2021/10/08 01:14:02;;;;;;;23.40;8.20;;;;;;;6.09;78.25;99834.52;235876;1200;25226;-72
2021/10/08 01:19:10;;;;;;;;;;;;;;;6.06;78.57;99834.33;235845;1200;24211;-74
2021/10/08 01:24:14;;;;;;;16.00;7.30;;;;;;;6.01;78.33;99832.48;235576;1200;24082;-73
2021/10/08 01:29:17;;;;;;;11.10;6.00;;;;;;;5.95;78.18;99836.98;235825;1193;22472;-74
2021/10/08 01:34:20;;;;;;;21.20;9.00;;;;;;;5.90;78.49;99835.29;235935;1193;24049;-74
2021/10/08 01:39:27;;;;;;;22.00;8.20;;;;;;;5.83;78.40;99834.54;235813;1199;24190;-74
2021/10/08 01:44:30;;;;;;;21.20;9.30;;;;;;;5.79;78.41;99840.36;236149;1199;22459;-74
2021/10/08 01:49:33;;;;;;;22.60;8.10;;;;;;;5.73;78.43;99844.52;235936;1196;22478;-75
2021/10/08 01:54:36;;;;;;;22.00;8.00;;;;;;;5.67;78.62;99844.16;235785;1193;25102;-72
2021/10/08 01:59:39;;;;;;;22.90;8.80;;;;;;;5.67;78.99;99843.22;235336;1185;24050;-75
2021/10/08 02:04:46;;;;;;;18.70;7.00;;;;;;;5.68;78.74;99849.17;235425;1201;24052;-75
2021/10/08 02:09:49;;;;;;;20.40;7.70;;;;;;;5.67;79.00;99852.13;235516;1195;22511;-75
2021/10/08 02:14:52;;;;;;;21.20;7.80;;;;;;;5.64;78.94;99857.23;235735;1193;23999;-74
2021/10/08 02:19:55;;;;;;;22.00;9.00;;;;;;;5.56;78.94;99858.31;235689;1200;24101;-75
2021/10/08 02:24:57;;;;;;;19.40;7.10;;;;;;;5.48;78.81;99860.04;235417;1199;25163;-74
2021/10/08 02:30:01;;;;;;;26.70;9.10;;;;;;;5.44;78.74;99862.02;236196;1199;25198;-74
2021/10/08 02:35:05;;;;;;;18.00;7.50;;;;;;;5.38;78.39;99862.82;236448;1199;24081;-75
2021/10/08 02:40:08;;;;;;;20.80;7.20;;;;;;;5.27;78.53;99865.78;236256;1193;22461;-72
2021/10/08 02:45:11;;;;;;;24.20;8.40;;;;;;;5.23;78.84;99870.34;236794;1199;24042;-74
2021/10/08 02:50:14;;;;;;;16.20;7.30;;;;;;;5.22;78.65;99879.30;236277;1193;24088;-74
2021/10/08 02:55:19;;;;;;;19.90;8.30;;;;;;;5.13;78.80;99879.33;236500;1197;23136;-72
2021/10/08 03:00:22;;;;;;;16.30;7.70;;;;;;;5.09;78.74;99881.51;235625;1201;24058;-72
2021/10/08 03:05:25;;;;;;;20.70;7.80;;;;;;;5.01;78.63;99880.80;235462;1194;24585;-73
2021/10/08 03:10:28;;;;;;;22.40;7.10;;;;;;;4.96;78.91;99883.27;235365;1193;22443;-74
2021/10/08 03:15:32;;;;;;;19.30;7.20;;;;;;;4.94;78.96;99886.21;235814;1199;25032;-75
2021/10/08 03:20:36;;;;;;;16.60;8.10;;;;;;;4.90;78.97;99888.59;235995;1196;24175;-75
2021/10/08 03:25:39;;;;;;;17.80;7.10;;;;;;;4.82;78.87;99887.62;235968;1193;22559;-74
2021/10/08 03:30:43;;;;;;;26.80;7.90;;;;;;;4.80;79.21;99898.71;236430;1197;24043;-75
2021/10/08 03:35:46;;;;;;;20.60;8.00;;;;;;;4.80;79.25;99898.14;236590;1199;25214;-75
2021/10/08 03:41:14;;;;;;;23.50;7.30;;;;;;;4.78;79.30;99902.77;236185;1195;22482;-75
2021/10/08 03:46:14;;;;;;;18.50;7.50;;;;;;;4.77;79.45;99905.23;236919;1193;22840;-75
2021/10/08 03:51:16;;;;;;;23.90;7.90;;;;;;;4.78;79.67;99909.03;236534;1199;22546;-74
2021/10/08 03:56:19;;;;;;;25.80;8.50;;;;;;;4.81;79.61;99915.16;236396;1199;22579;-74
2021/10/08 04:01:23;;;;;;;21.30;8.80;;;;;;;4.78;79.46;99915.36;235659;1193;22486;-75
2021/10/08 04:06:25;;;;;;;19.00;7.50;;;;;;;4.76;79.62;99924.73;235406;1201;24067;-73
2021/10/08 04:11:28;;;;;;;14.50;6.30;;;;;;;4.74;79.64;99917.23;235603;1193;24094;-74
2021/10/08 04:16:33;;;;;;;21.80;8.00;;;;;;;4.63;79.13;99921.64;235430;1200;24125;-73
2021/10/08 04:21:36;;;;;;;17.30;7.90;;;;;;;4.53;79.36;99920.30;235500;1200;23006;-72
2021/10/08 04:26:39;;;;;;;25.60;8.50;;;;;;;4.51;79.86;99917.80;235812;1193;22484;-73
2021/10/08 04:31:43;;;;;;;25.40;8.90;;;;;;;4.49;79.76;99921.09;236044;1192;22390;-72
2021/10/08 04:36:53;;;;;;;28.20;10.60;;;;;;;4.47;79.93;99929.89;236200;1193;24049;-72
2021/10/08 04:42:00;;;;;;;21.10;9.00;;;;;;;4.42;79.76;99937.33;235804;1192;24174;-72
2021/10/08 04:47:20;;;;;;;25.70;10.30;;;;;;;4.39;79.90;99939.40;236002;1199;22467;-75
2021/10/08 04:52:23;;;;;;;29.00;10.80;;;;;;;4.31;79.72;99939.52;236085;1199;25246;-75
2021/10/08 04:57:26;;;;;;;30.80;9.00;;;;;;;4.23;79.83;99949.02;236241;1199;22561;-74
2021/10/08 05:02:29;;;;;;;22.80;9.80;;;;;;;4.19;79.93;99950.67;235995;1177;24203;-74
2021/10/08 05:07:33;;;;;;;20.40;7.80;;;;;;;4.17;80.06;99950.50;236103;1199;22461;-73
2021/10/08 05:12:37;;;;;;;15.80;9.10;;;;;;;4.09;79.91;99955.84;235474;1194;22921;-73
2021/10/08 05:17:41;;;;;;;32.00;8.30;;;;;;;3.99;80.01;99962.14;235191;1199;25329;-74
2021/10/08 05:22:44;;;;;;;28.30;11.30;;;;;;;3.96;80.10;99965.70;235226;1201;22499;-75
2021/10/08 05:27:48;;;;;;;45.20;13.70;;;;;;;3.96;80.27;99966.33;235268;1185;24092;-73
2021/10/08 05:33:05;;;;;;;29.80;11.50;;;;;;;3.98;80.47;99972.96;235228;1201;25237;-73
2021/10/08 05:38:23;;;;;;;27.10;10.00;;;;;;;4.03;80.50;99978.76;235378;1193;24138;-73
2021/10/08 05:43:40;;;;;;;23.70;9.70;;;;;;;4.10;80.74;99982.13;235323;1193;24061;-74
2021/10/08 05:48:48;;;;;;;27.60;11.30;;;;;;;4.16;80.75;99984.48;235996;1193;24178;-73
2021/10/08 05:53:52;;;;;;;24.70;11.10;;;;;;;4.24;80.83;99994.19;236099;1200;22524;-74
2021/10/08 05:59:05;;;;;;;20.30;8.30;;;;;;;4.33;80.95;100002.11;235769;1200;24058;-73
2021/10/08 06:04:28;;;;;;;27.50;9.10;;;;;;;4.40;80.72;100004.70;236096;1194;25922;-73
2021/10/08 06:09:32;;;;;;;30.70;9.50;;;;;;;4.49;80.84;100003.08;237005;1193;22445;-73
2021/10/08 06:14:42;;;;;;;28.50;10.40;;;;;;;4.62;80.84;100007.66;236036;1177;22858;-71
2021/10/08 06:19:45;;;;;;;25.30;10.00;;;;;;;4.74;80.73;100010.55;236165;1193;22418;-74
2021/10/08 06:24:47;;;;;;;23.60;10.70;;;;;;;4.81;80.40;100012.44;235968;1193;22444;-73
2021/10/08 06:29:51;;;;;;;34.60;11.40;;;;;;;4.94;80.45;100013.30;235642;1200;22444;-72
2021/10/08 06:34:55;;;;;;;33.90;10.40;;;;;;;5.11;80.46;100017.86;236279;1193;22608;-73
2021/10/08 06:39:57;;;;;;;25.80;9.60;;;;;;;5.32;80.18;100031.16;236233;1199;23335;-73
2021/10/08 06:45:00;;;;;;;31.00;10.00;;;;;;;5.51;80.20;100037.86;235964;1199;24053;-74
2021/10/08 06:50:04;;;;;;;17.60;8.70;;;;;;;5.69;79.82;100039.58;235774;1199;22475;-71
2021/10/08 06:55:07;;;;;;;20.50;9.30;;;;;;;5.81;79.61;100031.71;235834;1193;22449;-73
2021/10/08 07:00:17;;;;;;;25.10;8.20;;;;;;;5.98;79.48;100036.52;235629;1194;24083;-72
2021/10/08 07:05:22;;;;;;;24.60;8.90;;;;;;;6.13;79.17;100044.59;235776;1199;24069;-71
2021/10/08 07:10:33;;;;;;;23.10;9.80;;;;;;;6.26;79.03;100047.09;236769;1193;22627;-71
2021/10/08 07:15:58;;;;;;;22.10;7.00;;;;;;;6.40;79.06;100047.04;235898;1199;25106;-71
2021/10/08 07:21:24;;;;;;;20.60;9.70;;;;;;;6.63;79.28;100049.45;236012;1199;22417;-73
2021/10/08 07:26:30;;;;;;;37.50;11.20;;;;;;;6.81;79.03;100049.77;235917;1185;22588;-73
2021/10/08 07:31:33;;;;;;;39.90;11.10;;;;;;;7.03;79.05;100049.60;235969;1193;24035;-71
2021/10/08 07:36:36;;;;;;;24.80;9.80;;;;;;;7.25;78.45;100055.16;236145;1200;22445;-71
2021/10/08 07:41:39;;;;;;;23.20;9.60;;;;;;;7.39;78.21;100056.14;235920;1199;25212;-74
2021/10/08 07:46:42;;;;;;;18.50;8.20;;;;;;;7.52;77.85;100058.92;236313;1194;24095;-72
2021/10/08 07:51:44;;;;;;;26.70;8.80;;;;;;;7.68;77.94;100061.21;236565;1199;22440;-73
2021/10/08 07:56:47;;;;;;;16.80;7.30;;;;;;;7.88;77.82;100053.83;236725;1192;22503;-74
2021/10/08 08:02:03;;;;;;;28.20;8.40;;;;;;;8.07;77.59;100064.16;235993;1200;22447;-71
2021/10/08 08:07:06;;;;;;;29.00;9.00;;;;;;;8.24;77.15;100070.91;235983;1194;22510;-70
2021/10/08 08:12:08;;;;;;;20.30;7.70;;;;;;;8.35;76.81;100075.38;235869;1200;22458;-71
2021/10/08 08:17:12;;;;;;;21.40;7.70;;;;;;;8.46;76.66;100079.95;236138;1199;22427;-71
2021/10/08 08:22:17;;;;;;;20.20;7.30;;;;;;;8.60;76.52;100083.77;235840;1199;25018;-70
2021/10/08 08:27:19;;;;;;;29.30;8.70;;;;;;;8.78;76.55;100091.15;236147;1199;22962;-70
2021/10/08 08:32:22;;;;;;;18.50;6.40;;;;;;;8.99;76.56;100095.46;235918;1199;24065;-70
2021/10/08 08:37:25;;;;;;;30.70;8.60;;;;;;;9.14;75.93;100100.61;236550;1193;22568;-70
2021/10/08 08:42:28;;;;;;;18.40;7.80;;;;;;;9.28;75.85;100094.20;236271;1193;25234;-70
2021/10/08 08:47:30;;;;;;;24.20;8.90;;;;;;;9.43;75.70;100096.75;235967;1199;24209;-70
2021/10/08 08:52:33;;;;;;;29.90;9.00;;;;;;;9.61;75.47;100088.19;236166;1199;24123;-70
2021/10/08 08:57:35;;;;;;;16.60;7.40;;;;;;;9.73;74.97;100090.96;236432;1199;22799;-70
2021/10/08 09:02:40;;;;;;;21.00;8.00;;;;;;;9.83;74.78;100091.71;236275;1195;22462;-70
2021/10/08 09:07:43;;;;;;;26.00;10.00;;;;;;;9.96;74.70;100090.63;236215;1193;22434;-70
2021/10/08 09:12:48;;;;;;;23.20;7.70;;;;;;;10.09;74.13;100092.99;236260;1194;25026;-71
2021/10/08 09:18:08;;;;;;;22.10;7.60;;;;;;;10.22;74.24;100093.45;236618;1193;22520;-70
2021/10/08 09:23:11;;;;;;;23.70;7.20;;;;;;;10.35;73.67;100099.48;236500;1193;22467;-72
2021/10/08 09:28:27;;;;;;;13.80;6.00;;;;;;;10.35;73.17;100095.95;236203;1193;24052;-72
2021/10/08 09:33:30;;;;;;;16.10;6.10;;;;;;;10.39;73.06;100093.14;234326;1199;22476;-71
2021/10/08 09:38:41;;;;;;;18.40;7.10;;;;;;;10.51;73.26;100092.02;236598;1193;24096;-70
2021/10/08 09:43:44;;;;;;;31.00;7.90;;;;;;;10.66;72.95;100093.42;236376;1195;22887;-71
2021/10/08 09:48:48;;;;;;;20.80;7.70;;;;;;;10.76;72.82;100089.48;236421;1199;22444;-70
2021/10/08 09:53:50;;;;;;;27.40;9.30;;;;;;;10.94;72.93;100092.87;236466;1193;24149;-72
2021/10/08 09:58:53;;;;;;;21.30;8.70;;;;;;;11.17;72.64;100087.91;237132;1197;24871;-71
2021/10/08 10:04:11;;;;;;;28.00;10.50;;;;;;;11.30;71.92;100079.03;236734;1192;22428;-70
2021/10/08 10:09:14;;;;;;;24.40;8.70;;;;;;;11.44;71.93;100078.66;237150;1199;22476;-71
2021/10/08 10:14:31;;;;;;;21.70;8.00;;;;;;;11.63;71.83;100078.67;236748;1199;25235;-71
2021/10/08 10:19:53;;;;;;;16.60;7.10;;;;;;;11.79;71.52;100074.64;236492;1200;22460;-73
2021/10/08 10:24:56;;;;;;;21.30;8.30;;;;;;;11.95;71.49;100075.61;236501;1199;22479;-73
2021/10/08 10:30:01;;;;;;;17.90;7.20;;;;;;;12.05;71.03;100070.33;236734;1193;22488;-72
2021/10/08 10:35:25;;;;;;;16.90;6.80;;;;;;;12.17;70.86;100065.40;237405;1199;24090;-71
2021/10/08 10:40:28;;;;;;;23.50;7.80;;;;;;;12.31;70.57;100068.16;236536;1183;22582;-71
2021/10/08 10:45:32;;;;;;;16.80;6.10;;;;;;;12.41;69.43;100071.55;236608;1199;27419;-72
2021/10/08 10:50:49;;;;;;;15.40;5.70;;;;;;;12.51;69.27;100070.41;237677;1199;24123;-71
2021/10/08 10:55:52;;;;;;;16.60;6.90;;;;;;;12.59;68.10;100074.87;235951;1193;22508;-73
2021/10/08 11:01:00;;;;;;;16.90;6.60;;;;;;;12.67;68.35;100068.25;236280;1199;22540;-72
2021/10/08 11:06:24;;;;;;;13.40;5.60;;;;;;;12.85;67.46;100069.95;236224;1199;22473;-71
2021/10/08 11:11:27;;;;;;;11.30;4.00;;;;;;;12.96;66.74;100072.84;236192;1193;24264;-72
2021/10/08 11:16:31;;;;;;;7.10;2.90;;;;;;;12.99;64.91;100074.39;235823;1193;22647;-74
2021/10/08 11:21:37;;;;;;;9.20;3.40;;;;;;;13.00;64.61;100069.12;235912;1199;22435;-72
2021/10/08 11:26:40;;;;;;;7.50;3.70;;;;;;;13.06;63.58;100065.13;236223;1199;23760;-71
2021/10/08 11:31:43;;;;;;;5.30;2.90;;;;;;;13.11;63.18;100063.02;236298;1199;25465;-72
2021/10/08 11:36:54;;;;;;;5.90;3.00;;;;;;;13.30;63.17;100064.29;236000;1193;24094;-73
2021/10/08 11:42:01;;;;;;;9.20;2.90;;;;;;;13.43;61.70;100067.67;235699;1199;25195;-71
2021/10/08 11:47:18;;;;;;;5.50;2.70;;;;;;;13.45;60.53;100063.80;236647;1193;22444;-72
2021/10/08 11:52:29;;;;;;;5.70;2.60;;;;;;;13.43;60.00;100066.59;236963;1199;24836;-71
2021/10/08 11:57:56;;;;;;;6.50;3.10;;;;;;;13.44;58.74;100067.24;235767;1199;25704;-73
2021/10/08 12:03:07;;;;;;;10.00;3.50;;;;;;;13.39;57.98;100071.45;235798;1199;24116;-72
2021/10/08 12:08:16;;;;;;;5.60;2.20;;;;;;;13.42;58.54;100070.16;236063;1187;25471;-73
2021/10/08 12:13:42;;;;;;;3.60;2.30;;;;;;;13.49;58.75;100071.68;237212;1199;22456;-73
2021/10/08 12:19:01;;;;;;;7.90;2.50;;;;;;;13.60;58.26;100074.48;236709;1197;22456;-72
2021/10/08 12:24:24;;;;;;;5.70;2.60;;;;;;;13.64;58.48;100074.69;236485;1193;24887;-74
2021/10/08 12:29:51;;;;;;;6.10;3.00;;;;;;;13.65;57.84;100070.92;236072;1199;22428;-73
2021/10/08 12:35:13;;;;;;;5.10;2.60;;;;;;;13.69;57.57;100070.56;238102;1197;22530;-73
2021/10/08 12:40:19;;;;;;;5.30;2.70;;;;;;;13.75;57.51;100068.44;235902;1199;22573;-71
2021/10/08 12:45:33;;;;;;;5.40;2.60;;;;;;;13.71;55.93;100065.02;235813;1198;22490;-73
2021/10/08 12:50:38;;;;;;;6.00;3.30;;;;;;;13.70;55.66;100068.31;238447;1199;24791;-74
2021/10/08 12:55:41;;;;;;;5.80;2.50;;;;;;;13.64;54.58;100067.52;235669;1199;22526;-74
2021/10/08 13:00:47;;;;;;;5.30;2.90;;;;;;;13.61;54.38;100073.36;238374;1199;24055;-73
2021/10/08 13:05:54;;;;;;;6.60;3.40;;;;;;;13.60;54.37;100075.23;236016;1193;22445;-75
2021/10/08 13:11:14;;;;;;;5.40;2.80;;;;;;;13.64;53.82;100076.02;236105;1194;22483;-74
2021/10/08 13:16:27;;;;;;;10.00;3.10;;;;;;;13.62;53.32;100073.46;236245;1199;22477;-73
2021/10/08 13:21:31;;;;;;;8.20;3.20;;;;;;;13.59;53.89;100077.14;236181;1193;22418;-73
2021/10/08 13:26:34;;;;;;;10.20;4.20;;;;;;;13.52;53.99;100073.61;235836;1193;22606;-74
2021/10/08 13:31:37;;;;;;;8.70;3.10;;;;;;;13.51;53.94;100070.38;235818;1199;25456;-72
2021/10/08 13:36:39;;;;;;;9.10;3.70;;;;;;;13.42;53.20;100072.09;235653;1193;22478;-73
2021/10/08 13:41:41;;;;;;;5.60;2.80;;;;;;;13.30;52.50;100066.98;235512;1200;22472;-73
2021/10/08 13:46:51;;;;;;;7.10;3.60;;;;;;;13.25;52.36;100068.14;236282;1193;22468;-74
2021/10/08 13:51:54;;;;;;;6.30;4.00;;;;;;;13.24;52.14;100063.57;236266;1199;23115;-71
2021/10/08 13:56:57;;;;;;;7.60;3.20;;;;;;;13.24;51.88;100063.19;236744;1177;24005;-72
2021/10/08 14:02:09;;;;;;;9.50;2.80;;;;;;;13.27;52.22;100053.98;236728;1192;24168;-73
2021/10/08 14:12:17;;;;;;;7.30;3.60;;;;;;;13.26;52.19;100054.95;236700;1199;22541;-74
2021/10/08 14:17:20;;;;;;;6.30;2.70;;;;;;;13.22;52.33;100058.04;236803;1199;22648;-72
2021/10/08 14:22:23;;;;;;;8.70;3.80;;;;;;;13.11;51.39;100051.08;236959;1199;22456;-73
2021/10/08 14:27:26;;;;;;;6.00;2.70;;;;;;;13.03;51.49;100052.16;236377;1199;22438;-73
2021/10/08 14:32:29;;;;;;;5.50;3.70;;;;;;;12.94;51.28;100051.98;235978;1200;22448;-72
2021/10/08 14:37:32;;;;;;;7.20;2.70;;;;;;;12.86;50.97;100050.32;236228;1184;24305;-72
2021/10/08 14:42:36;;;;;;;7.30;3.10;;;;;;;12.78;50.73;100048.52;236363;1199;22930;-73
2021/10/08 14:47:48;;;;;;;6.30;3.10;;;;;;;12.71;50.80;100044.96;236254;1197;22541;-74
2021/10/08 14:53:06;;;;;;;5.80;3.00;;;;;;;12.66;51.02;100047.19;236197;1195;22449;-72
2021/10/08 14:58:13;;;;;;;7.50;3.00;;;;;;;12.62;51.25;100050.30;235887;1193;23013;-73
2021/10/08 15:03:19;;;;;;;8.00;3.00;;;;;;;12.56;51.60;100051.27;236110;1198;22519;-72
2021/10/08 15:08:22;;;;;;;7.30;3.20;;;;;;;12.51;51.55;100051.88;236000;1198;24136;-72
2021/10/08 15:13:24;;;;;;;7.80;3.40;;;;;;;12.39;51.68;100053.33;235850;1199;24175;-73
2021/10/08 15:18:28;;;;;;;8.90;3.00;;;;;;;12.26;51.25;100057.62;235800;1199;24126;-72
2021/10/08 15:23:31;;;;;;;7.80;3.60;;;;;;;12.13;51.75;100062.55;235924;1199;24206;-74
2021/10/08 15:28:35;;;;;;;5.50;3.30;;;;;;;11.98;51.58;100064.35;235929;1187;22554;-74
2021/10/08 15:33:37;;;;;;;8.40;3.80;;;;;;;11.82;51.66;100071.55;235927;1199;24201;-71
2021/10/08 15:38:40;;;;;;;8.90;3.50;;;;;;;11.68;52.17;100073.96;235790;1193;25259;-74
2021/10/08 15:43:55;;;;;;;10.20;4.20;;;;;;;11.56;51.83;100077.90;236120;1186;22538;-74
2021/10/08 15:49:18;;;;;;;9.90;4.80;;;;;;;11.38;52.10;100076.96;235982;1177;24084;-73
2021/10/08 15:54:20;;;;;;;8.10;3.80;;;;;;;11.22;52.56;100082.31;235757;1198;24050;-73
2021/10/08 15:59:23;;;;;;;9.00;3.70;;;;;;;11.06;52.77;100087.85;235705;1198;22455;-74
2021/10/08 16:04:25;;;;;;;10.40;4.00;;;;;;;10.89;52.99;100096.27;235896;1193;22475;-72
2021/10/08 16:09:28;;;;;;;8.40;3.40;;;;;;;10.72;52.87;100098.94;235506;1194;24195;-74
2021/10/08 16:14:31;;;;;;;8.90;4.20;;;;;;;10.58;52.83;100105.79;235725;1200;24058;-75
2021/10/08 16:19:40;;;;;;;11.00;4.50;;;;;;;10.44;52.75;100111.73;235870;1194;22483;-75
2021/10/08 16:24:43;;;;;;;10.50;3.50;;;;;;;10.27;52.72;100118.62;235816;1200;22588;-73
2021/10/08 16:29:46;;;;;;;8.30;3.80;;;;;;;10.12;53.21;100122.59;235948;1191;25234;-74
2021/10/08 16:34:48;;;;;;;10.90;4.80;;;;;;;9.97;53.64;100128.70;235559;1200;24109;-74
2021/10/08 16:39:51;;;;;;;9.20;4.50;;;;;;;9.80;54.24;100135.40;235618;1200;25345;-72
2021/10/08 16:44:55;;;;;;;7.30;3.60;;;;;;;9.64;54.58;100136.08;235593;1193;22425;-72
2021/10/08 16:49:59;;;;;;;11.60;4.60;;;;;;;9.49;54.34;100139.05;236187;1200;22460;-75
2021/10/08 16:55:04;;;;;;;9.20;4.50;;;;;;;9.40;54.42;100143.85;237865;1199;22471;-75
2021/10/08 17:00:07;;;;;;;7.00;3.60;;;;;;;9.33;54.72;100143.54;237141;1199;22434;-75
2021/10/08 17:05:12;;;;;;;7.70;3.70;;;;;;;9.24;55.00;100145.91;237473;1199;22515;-75
2021/10/08 17:10:15;;;;;;;8.20;3.80;;;;;;;9.12;55.28;100151.95;236345;1185;24094;-73
2021/10/08 17:15:19;;;;;;;11.90;5.20;;;;;;;8.98;55.52;100150.55;235667;1200;24087;-74
2021/10/08 17:20:21;;;;;;;10.60;4.90;;;;;;;8.85;55.76;100155.48;237533;1200;22469;-76
2021/10/08 17:30:46;;;;;;;14.00;6.20;;;;;;;8.64;56.60;100161.34;235694;1193;22530;-75
2021/10/08 17:35:49;;;;;;;13.00;4.70;;;;;;;8.52;56.86;100164.77;235764;1200;22434;-74
2021/10/08 17:40:53;;;;;;;9.70;4.80;;;;;;;8.43;57.02;100165.75;235865;1199;24349;-73
2021/10/08 17:45:55;;;;;;;11.30;5.00;;;;;;;8.40;57.31;100163.63;235851;1193;22449;-74
2021/10/08 17:50:59;;;;;;;8.50;4.70;;;;;;;8.35;57.50;100166.98;235509;1200;25204;-72
2021/10/08 17:56:06;;;;;;;10.40;4.60;;;;;;;8.30;57.70;100168.67;235576;1194;24059;-75
2021/10/08 18:01:10;;;;;;;9.90;4.80;;;;;;;8.24;58.09;100171.29;236026;1193;22449;-72
2021/10/08 18:06:14;;;;;;;11.10;4.80;;;;;;;8.18;58.13;100175.45;235737;1200;24038;-73
2021/10/08 18:11:18;;;;;;;14.30;5.10;;;;;;;8.13;58.14;100175.06;235785;1200;24069;-73
2021/10/08 18:16:21;;;;;;;11.90;4.70;;;;;;;8.08;57.94;100178.24;235532;1200;24087;-75
2021/10/08 18:21:25;;;;;;;13.80;6.30;;;;;;;8.03;58.04;100175.01;235518;1200;24211;-74
2021/10/08 18:26:31;;;;;;;11.20;4.90;;;;;;;7.97;57.96;100172.27;235744;1193;22449;-73
2021/10/08 18:31:36;;;;;;;11.10;4.50;;;;;;;7.91;58.05;100177.11;235533;1200;22437;-73
2021/10/08 18:36:39;;;;;;;5.80;3.10;;;;;;;7.85;58.08;100179.40;235792;1193;22565;-73
2021/10/08 18:41:42;;;;;;;10.10;3.90;;;;;;;7.79;58.04;100180.43;235499;1200;25148;-72
2021/10/08 18:46:44;;;;;;;10.10;4.10;;;;;;;7.72;57.94;100179.12;235567;1200;22454;-72
2021/10/08 18:51:48;;;;;;;9.00;3.50;;;;;;;7.64;58.22;100178.49;235643;1200;22471;-75
2021/10/08 18:56:50;;;;;;;10.40;4.70;;;;;;;7.57;58.11;100178.27;235669;1186;24197;-74
2021/10/08 19:01:54;;;;;;;8.40;3.90;;;;;;;7.47;58.23;100182.91;236239;1200;24053;-75
2021/10/08 19:06:57;;;;;;;5.40;3.10;;;;;;;7.39;58.33;100183.63;235286;1200;25221;-75
2021/10/08 19:12:07;;;;;;;6.00;3.00;;;;;;;7.31;58.30;100184.79;235856;1200;24684;-74
2021/10/08 19:22:29;;;;;;;11.10;4.00;;;;;;;7.18;58.56;100189.98;235396;1200;24123;-73
2021/10/08 19:27:35;;;;;;;10.10;3.80;;;;;;;7.10;58.90;100187.56;235587;1200;24042;-75
2021/10/08 19:32:37;;;;;;;11.00;4.60;;;;;;;7.05;59.03;100183.14;235556;1200;25173;-74
2021/10/08 19:37:43;;;;;;;7.40;3.30;;;;;;;7.02;59.08;100184.70;235517;1200;22477;-73
2021/10/08 19:42:51;;;;;;;6.90;3.50;;;;;;;6.99;58.98;100183.85;235306;1200;23645;-73
2021/10/08 19:47:54;;;;;;;8.00;3.40;;;;;;;6.97;58.85;100180.55;235716;1200;22450;-72
2021/10/08 19:52:58;;;;;;;9.80;3.90;;;;;;;6.95;58.60;100185.83;235350;1193;23994;-75
2021/10/08 19:58:01;;;;;;;8.30;4.10;;;;;;;6.94;58.58;100179.66;236576;1199;22477;-73
2021/10/08 20:03:05;;;;;;;10.00;4.20;;;;;;;6.94;58.62;100180.52;236115;1199;22508;-73
2021/10/08 20:18:34;;;;;;;7.80;3.50;;;;;;;6.75;58.76;100183.73;236141;1199;22543;-73
2021/10/08 20:23:40;;;;;;;11.20;3.40;;;;;;;6.66;58.91;100187.88;235672;1199;24037;-73
2021/10/08 20:28:45;;;;;;;8.30;3.80;;;;;;;6.61;59.12;100185.89;236046;1199;22562;-72
2021/10/08 20:33:52;;;;;;;9.30;3.10;;;;;;;6.56;59.34;100192.52;236145;1199;22464;-74
2021/10/08 20:38:55;;;;;;;6.80;3.00;;;;;;;6.48;59.43;100195.05;235983;1193;24762;-73
2021/10/08 20:43:57;;;;;;;7.30;3.70;;;;;;;6.44;59.64;100194.45;235707;1197;24028;-75
2021/10/08 20:48:59;;;;;;;8.40;4.60;;;;;;;6.39;59.93;100192.14;236109;1193;22443;-73
2021/10/08 20:54:02;;;;;;;10.80;4.10;;;;;;;6.33;59.92;100189.84;236087;1199;24116;-76
2021/10/08 20:59:07;;;;;;;9.70;3.30;;;;;;;6.27;60.10;100182.55;235820;1194;25203;-75
2021/10/08 21:04:10;;;;;;;9.90;3.70;;;;;;;6.20;60.16;100185.67;235965;1199;24136;-74
2021/10/08 21:09:14;;;;;;;7.90;3.70;;;;;;;6.13;60.55;100191.61;235396;1193;24146;-75
2021/10/08 21:14:17;;;;;;;9.50;4.40;;;;;;;6.06;60.64;100189.86;235341;1193;22524;-74
2021/10/08 21:19:24;;;;;;;10.40;3.40;;;;;;;6.02;60.60;100192.95;235647;1200;23999;-73
2021/10/08 21:24:26;;;;;;;7.70;3.30;;;;;;;6.00;60.83;100188.76;235838;1200;25296;-75
2021/10/08 21:29:29;;;;;;;13.80;3.70;;;;;;;5.95;61.01;100189.52;235743;1193;24200;-75
2021/10/08 21:34:39;;;;;;;7.40;3.40;;;;;;;5.88;60.90;100187.58;235923;1193;22454;-75
2021/10/08 21:44:50;;;;;;;10.60;3.60;;;;;;;5.75;61.13;100183.07;235492;1200;22424;-75
2021/10/08 21:49:53;;;;;;;9.20;3.30;;;;;;;5.68;61.25;100182.79;235707;1193;24034;-75
2021/10/08 21:54:56;;;;;;;5.20;2.90;;;;;;;5.65;61.49;100185.63;235389;1200;22425;-75
2021/10/08 22:00:07;;;;;;;10.10;3.50;;;;;;;5.64;61.41;100181.02;235975;1200;24094;-74
2021/10/08 22:05:14;;;;;;;6.00;2.70;;;;;;;5.56;61.64;100177.98;235892;1194;25047;-75
2021/10/08 22:10:16;;;;;;;5.20;2.80;;;;;;;5.51;61.42;100179.44;235974;1200;24565;-75
2021/10/08 22:15:20;;;;;;;5.70;2.50;;;;;;;5.47;61.85;100175.75;235488;1200;22446;-74
2021/10/08 22:20:23;;;;;;;7.00;3.60;;;;;;;5.43;61.78;100172.12;235669;1193;24195;-74
2021/10/08 22:25:33;;;;;;;7.10;3.10;;;;;;;5.39;62.05;100172.38;236446;1193;22894;-73
2021/10/08 22:35:57;;;;;;;8.10;3.30;;;;;;;5.30;61.87;100164.02;235486;1193;23692;-74
2021/10/08 22:41:01;;;;;;;5.50;2.50;;;;;;;5.21;62.28;100165.52;235532;1197;25038;-73
2021/10/08 22:46:03;;;;;;;5.40;3.40;;;;;;;5.13;62.38;100164.92;235399;1200;25204;-75
2021/10/08 22:51:13;;;;;;;6.30;3.10;;;;;;;5.01;62.59;100160.48;235659;1193;24081;-73
2021/10/08 22:56:19;;;;;;;9.20;4.10;;;;;;;4.92;62.81;100157.66;235485;1199;24145;-74
2021/10/08 23:01:21;;;;;;;7.50;3.10;;;;;;;4.87;63.31;100158.71;235738;1193;22440;-74
2021/10/08 23:11:51;;;;;;;8.50;3.70;;;;;;;4.78;63.61;100159.11;236333;1199;22637;-74
2021/10/08 23:16:55;;;;;;;5.20;2.90;;;;;;;4.74;63.54;100159.10;236121;1199;22454;-75
2021/10/08 23:22:11;;;;;;;5.60;2.40;;;;;;;4.67;63.44;100156.78;236280;1192;22454;-73
2021/10/08 23:27:27;;;;;;;10.50;3.50;;;;;;;4.61;63.87;100155.48;236168;1199;24148;-75
2021/10/08 23:32:30;;;;;;;9.90;3.40;;;;;;;4.53;64.02;100151.82;235798;1193;24057;-75
2021/10/08 23:37:33;;;;;;;10.50;4.20;;;;;;;4.44;64.02;100143.84;236103;1199;23972;-73
2021/10/08 23:42:35;;;;;;;13.60;3.80;;;;;;;4.37;64.37;100150.28;236456;1199;25160;-72
2021/10/08 23:47:38;;;;;;;9.10;3.60;;;;;;;4.33;64.42;100148.60;236028;1193;22569;-73
2021/10/08 23:52:41;;;;;;;7.10;3.70;;;;;;;4.29;64.74;100148.09;235940;1194;24053;-73
2021/10/08 23:57:43;;;;;;;7.50;3.20;;;;;;;4.22;64.79;100150.48;235601;1199;24089;-72
